createdAt,value
2023-04-08T00:02:17.607Z,10.65
2023-04-08T00:04:46.213Z,10.62
2023-04-08T00:07:17.304Z,10.60
2023-04-08T00:09:46.176Z,10.58
2023-04-08T00:12:14.870Z,10.55
2023-04-08T00:14:43.056Z,10.55
2023-04-08T00:17:11.513Z,10.54
2023-04-08T00:19:40.102Z,10.52
2023-04-08T00:22:08.994Z,10.50
2023-04-08T00:24:37.504Z,10.50
2023-04-08T00:27:05.678Z,10.49
2023-04-08T00:29:35.105Z,10.47
2023-04-08T00:32:04.215Z,10.46
2023-04-08T00:34:32.608Z,10.46
2023-04-08T00:37:01.317Z,10.47
2023-04-08T00:39:29.623Z,10.47
2023-04-08T00:41:57.900Z,10.46
2023-04-08T00:44:26.570Z,10.44
2023-04-08T00:46:54.692Z,10.42
2023-04-08T00:49:23.068Z,10.40
2023-04-08T00:51:52.378Z,10.39
2023-04-08T00:54:23.856Z,10.39
2023-04-08T00:56:51.978Z,10.38
2023-04-08T00:59:20.307Z,10.38
2023-04-08T01:01:54.977Z,10.36
2023-04-08T01:04:44.339Z,10.34
2023-04-08T01:07:23.041Z,10.36
2023-04-08T01:09:56.424Z,10.36
2023-04-08T01:12:29.838Z,10.35
2023-04-08T01:15:03.087Z,10.34
2023-04-08T01:17:32.816Z,10.31
2023-04-08T01:20:01.902Z,10.29
2023-04-08T01:23:11.447Z,10.28
2023-04-08T01:25:40.083Z,10.27
2023-04-08T01:28:10.726Z,10.25
2023-04-08T01:30:41.003Z,10.24
2023-04-08T01:33:13.701Z,10.23
2023-04-08T01:35:41.871Z,10.23
2023-04-08T01:38:11.433Z,10.26
2023-04-08T01:40:39.860Z,10.30
2023-04-08T01:43:09.128Z,10.30
2023-04-08T01:45:40.834Z,10.29
2023-04-08T01:48:08.999Z,10.31
2023-04-08T01:50:38.373Z,10.34
2023-04-08T01:53:06.483Z,10.38
2023-04-08T01:55:36.079Z,10.42
2023-04-08T01:58:04.268Z,10.43
2023-04-08T02:00:37.805Z,10.41
2023-04-08T02:03:08.971Z,10.38
2023-04-08T02:05:38.090Z,10.36
2023-04-08T02:08:06.575Z,10.36
2023-04-08T02:10:37.969Z,10.37
2023-04-08T02:13:06.716Z,10.36
2023-04-08T02:15:35.746Z,10.34
2023-04-08T02:18:16.738Z,10.32
2023-04-08T02:20:49.161Z,10.28
2023-04-08T02:23:32.902Z,10.27
2023-04-08T02:26:01.069Z,10.27
2023-04-08T02:28:29.524Z,10.25
2023-04-08T02:31:00.789Z,10.24
2023-04-08T02:33:31.972Z,10.25
2023-04-08T02:36:00.423Z,10.27
2023-04-08T02:38:33.964Z,10.28
2023-04-08T02:41:02.252Z,10.27
2023-04-08T02:43:32.569Z,10.27
2023-04-08T02:46:04.200Z,10.26
2023-04-08T02:48:33.223Z,10.24
2023-04-08T02:51:01.451Z,10.21
2023-04-08T02:53:33.879Z,10.20
2023-04-08T02:56:02.299Z,10.21
2023-04-08T02:58:30.926Z,10.20
2023-04-08T03:00:59.736Z,10.19
2023-04-08T03:03:30.317Z,10.18
2023-04-08T03:05:59.530Z,10.16
2023-04-08T03:08:27.753Z,10.17
2023-04-08T03:10:56.751Z,10.17
2023-04-08T03:13:25.816Z,10.17
2023-04-08T03:15:54.375Z,10.16
2023-04-08T03:18:22.965Z,10.15
2023-04-08T03:20:51.271Z,10.14
2023-04-08T03:23:19.895Z,10.15
2023-04-08T03:25:48.728Z,10.15
2023-04-08T03:28:16.923Z,10.13
2023-04-08T03:30:45.429Z,10.12
2023-04-08T03:33:14.732Z,10.10
2023-04-08T03:35:43.071Z,10.09
2023-04-08T03:38:12.228Z,10.09
2023-04-08T03:40:40.769Z,10.09
2023-04-08T03:43:09.276Z,10.08
2023-04-08T03:45:37.895Z,10.07
2023-04-08T03:48:06.714Z,10.06
2023-04-08T03:50:35.876Z,10.05
2023-04-08T03:53:06.113Z,10.06
2023-04-08T03:55:34.241Z,10.07
2023-04-08T03:58:08.178Z,10.06
2023-04-08T04:00:37.428Z,10.06
2023-04-08T04:03:13.464Z,10.08
2023-04-08T04:05:42.575Z,10.10
2023-04-08T04:08:10.785Z,10.14
2023-04-08T04:10:39.884Z,10.18
2023-04-08T04:13:08.210Z,10.19
2023-04-08T04:15:40.536Z,10.18
2023-04-08T04:18:09.003Z,10.17
2023-04-08T04:20:41.640Z,10.17
2023-04-08T04:23:10.060Z,10.18
2023-04-08T04:25:41.618Z,10.18
2023-04-08T04:28:17.418Z,10.18
2023-04-08T04:30:48.488Z,10.18
2023-04-08T04:33:17.213Z,10.20
2023-04-08T04:35:48.303Z,10.20
2023-04-08T04:38:16.461Z,10.21
2023-04-08T04:40:47.960Z,10.23
2023-04-08T04:43:17.332Z,10.24
2023-04-08T04:45:46.573Z,10.22
2023-04-08T04:48:16.446Z,10.23
2023-04-08T04:50:44.759Z,10.24
2023-04-08T04:53:19.460Z,10.27
2023-04-08T04:55:48.955Z,10.29
2023-04-08T04:58:18.157Z,10.31
2023-04-08T05:00:46.894Z,10.32
2023-04-08T05:03:17.083Z,10.33
2023-04-08T05:05:53.330Z,10.34
2023-04-08T05:08:22.142Z,10.38
2023-04-08T05:10:51.052Z,10.42
2023-04-08T05:13:28.339Z,10.47
2023-04-08T05:16:01.089Z,10.53
2023-04-08T05:18:30.391Z,10.60
2023-04-08T05:20:59.032Z,10.67
2023-04-08T05:23:27.189Z,10.75
2023-04-08T05:25:56.239Z,10.83
2023-04-08T05:28:27.677Z,10.88
2023-04-08T05:30:56.008Z,10.92
2023-04-08T05:33:26.722Z,10.96
2023-04-08T05:36:00.658Z,10.98
2023-04-08T05:38:29.174Z,11.03
2023-04-08T05:40:57.674Z,11.09
2023-04-08T05:43:25.845Z,11.15
2023-04-08T05:46:00.529Z,11.22
2023-04-08T05:48:29.065Z,11.28
2023-04-08T05:50:57.244Z,11.36
2023-04-08T05:53:26.420Z,11.45
2023-04-08T05:55:54.819Z,11.55
2023-04-08T05:58:25.456Z,11.64
2023-04-08T06:00:55.669Z,11.72
2023-04-08T06:03:26.844Z,11.80
2023-04-08T06:05:56.666Z,11.87
2023-04-08T06:08:25.002Z,11.95
2023-04-08T06:10:54.510Z,12.03
2023-04-08T06:13:25.746Z,12.09
2023-04-08T06:15:54.243Z,12.14
2023-04-08T06:18:22.974Z,12.17
2023-04-08T06:20:51.232Z,12.20
2023-04-08T06:23:19.467Z,12.20
2023-04-08T06:25:47.836Z,12.22
2023-04-08T06:28:16.419Z,12.23
2023-04-08T06:30:47.971Z,12.23
2023-04-08T06:33:16.117Z,12.22
2023-04-08T06:35:44.486Z,12.22
2023-04-08T06:38:13.533Z,12.22
2023-04-08T06:40:41.836Z,12.21
2023-04-08T06:43:10.459Z,12.24
2023-04-08T06:45:43.135Z,12.27
2023-04-08T06:48:12.484Z,12.32
2023-04-08T06:50:40.935Z,12.36
2023-04-08T06:53:09.835Z,12.41
2023-04-08T06:55:38.392Z,12.46
2023-04-08T06:58:08.448Z,12.52
2023-04-08T07:00:37.425Z,12.59
2023-04-08T07:03:13.043Z,12.68
2023-04-08T07:05:42.667Z,12.76
2023-04-08T07:08:10.851Z,12.85
2023-04-08T07:10:40.124Z,12.93
2023-04-08T07:13:08.570Z,12.99
2023-04-08T07:15:37.544Z,13.04
2023-04-08T07:18:06.300Z,13.12
2023-04-08T07:20:38.424Z,13.23
2023-04-08T07:23:06.845Z,13.38
2023-04-08T07:25:36.143Z,13.60
2023-04-08T07:28:04.653Z,13.83
2023-04-08T07:30:33.498Z,14.08
2023-04-08T07:33:01.765Z,14.35
2023-04-08T07:35:38.575Z,14.62
2023-04-08T07:38:11.599Z,14.85
2023-04-08T07:40:39.890Z,15.06
2023-04-08T07:43:09.821Z,15.25
2023-04-08T07:45:38.186Z,15.41
2023-04-08T07:48:08.513Z,15.55
2023-04-08T07:51:07.980Z,15.63
2023-04-08T07:53:28.682Z,15.66
2023-04-08T07:55:57.085Z,15.70
2023-04-08T07:58:25.765Z,15.74
2023-04-08T08:00:55.007Z,15.79
2023-04-08T08:03:25.615Z,15.86
2023-04-08T08:05:53.905Z,15.91
2023-04-08T08:08:22.049Z,16.00
2023-04-08T08:10:50.490Z,16.10
2023-04-08T08:13:22.269Z,16.20
2023-04-08T08:15:53.938Z,16.27
2023-04-08T08:18:22.968Z,16.35
2023-04-08T08:20:51.507Z,16.44
2023-04-08T08:23:22.243Z,16.50
2023-04-08T08:25:50.526Z,16.54
2023-04-08T08:28:23.009Z,16.61
2023-04-08T08:30:51.781Z,16.66
2023-04-08T08:33:20.588Z,16.72
2023-04-08T08:35:49.025Z,16.78
2023-04-08T08:38:18.449Z,16.83
2023-04-08T08:40:46.743Z,16.88
2023-04-08T08:43:15.775Z,16.91
2023-04-08T08:45:44.401Z,16.91
2023-04-08T08:48:13.799Z,16.93
2023-04-08T08:50:42.689Z,16.95
2023-04-08T08:53:11.371Z,16.98
2023-04-08T08:56:09.371Z,17.01
2023-04-08T08:58:29.691Z,17.06
2023-04-08T09:00:57.931Z,17.08
2023-04-08T09:03:29.620Z,17.12
2023-04-08T09:05:59.703Z,17.15
2023-04-08T09:08:33.102Z,17.17
2023-04-08T09:11:18.268Z,17.20
2023-04-08T09:13:49.952Z,17.23
2023-04-08T09:16:19.973Z,17.28
2023-04-08T09:18:49.833Z,17.35
2023-04-08T09:21:18.579Z,17.45
2023-04-08T09:23:48.569Z,17.49
2023-04-08T09:26:18.122Z,17.49
2023-04-08T09:29:25.100Z,17.45
2023-04-08T09:31:56.192Z,17.48
2023-04-08T09:34:27.909Z,17.57
2023-04-08T09:36:56.901Z,17.68
2023-04-08T09:39:25.892Z,17.77
2023-04-08T09:42:01.476Z,17.83
2023-04-08T09:44:31.315Z,17.88
2023-04-08T09:47:11.349Z,17.99
2023-04-08T09:49:48.955Z,18.09
2023-04-08T09:52:40.845Z,18.13
2023-04-08T09:55:09.484Z,18.17
2023-04-08T09:58:02.190Z,18.18
2023-04-08T10:00:44.085Z,18.16
2023-04-08T10:06:08.410Z,18.12
2023-04-08T10:08:37.587Z,18.12
2023-04-08T10:11:07.338Z,18.13
2023-04-08T10:13:41.234Z,18.13
2023-04-08T10:16:24.722Z,18.12
2023-04-08T10:18:56.330Z,18.08
2023-04-08T10:21:37.774Z,17.99
2023-04-08T10:24:07.593Z,17.91
2023-04-08T10:26:36.897Z,17.91
2023-04-08T10:29:18.423Z,17.92
2023-04-08T10:31:50.849Z,17.99
2023-04-08T10:34:27.635Z,18.11
2023-04-08T10:36:57.012Z,18.20
2023-04-08T10:39:27.711Z,18.26
2023-04-08T10:41:56.598Z,18.31
2023-04-08T10:44:27.683Z,18.35
2023-04-08T10:46:56.611Z,18.36
2023-04-08T10:49:33.381Z,18.37
2023-04-08T10:52:08.785Z,18.38
2023-04-08T10:54:37.460Z,18.37
2023-04-08T10:57:06.192Z,18.37
2023-04-08T10:59:34.720Z,18.39
2023-04-08T11:02:04.349Z,18.45
2023-04-08T11:04:32.939Z,18.54
2023-04-08T11:07:01.256Z,18.61
2023-04-08T11:09:29.963Z,18.65
2023-04-08T11:12:00.189Z,18.66
2023-04-08T11:14:33.343Z,18.54
2023-04-08T11:17:01.936Z,18.48
2023-04-08T11:19:31.143Z,18.53
2023-04-08T11:21:59.401Z,18.73
2023-04-08T11:24:28.392Z,19.04
2023-04-08T11:27:06.380Z,19.50
2023-04-08T11:29:36.367Z,20.00
2023-04-08T11:32:04.677Z,20.47
2023-04-08T11:34:39.210Z,20.86
2023-04-08T11:37:07.560Z,21.10
2023-04-08T11:39:42.840Z,21.22
2023-04-08T11:42:29.761Z,21.22
2023-04-08T11:44:58.071Z,21.25
2023-04-08T11:47:37.504Z,21.24
2023-04-08T11:50:06.920Z,21.30
2023-04-08T11:52:46.291Z,21.41
2023-04-08T11:55:27.763Z,21.47
2023-04-08T11:57:57.005Z,21.52
2023-04-08T12:00:26.207Z,21.58
2023-04-08T12:02:55.883Z,21.57
2023-04-08T12:05:24.736Z,21.53
2023-04-08T12:07:54.271Z,21.48
2023-04-08T12:10:22.487Z,21.54
2023-04-08T12:12:58.066Z,21.71
2023-04-08T12:15:27.337Z,21.83
2023-04-08T12:17:56.012Z,21.77
2023-04-08T12:20:32.113Z,21.76
2023-04-08T12:23:00.819Z,21.79
2023-04-08T12:25:29.326Z,21.94
2023-04-08T12:27:57.787Z,22.14
2023-04-08T12:30:26.794Z,22.33
2023-04-08T12:32:57.986Z,22.55
2023-04-08T12:35:26.532Z,22.77
2023-04-08T12:37:54.729Z,22.97
2023-04-08T12:40:22.927Z,23.18
2023-04-08T12:42:51.382Z,23.43
2023-04-08T12:45:19.897Z,23.67
2023-04-08T12:47:49.940Z,23.84
2023-04-08T12:50:18.409Z,23.89
2023-04-08T12:52:48.226Z,23.89
2023-04-08T12:55:16.605Z,23.80
2023-04-08T12:57:44.931Z,23.71
2023-04-08T13:00:14.048Z,23.49
2023-04-08T13:02:55.794Z,23.06
2023-04-08T13:05:39.780Z,22.62
2023-04-08T13:08:14.523Z,22.15
2023-04-08T13:10:55.147Z,21.73
2023-04-08T13:13:26.810Z,21.39
2023-04-08T13:15:55.329Z,21.06
2023-04-08T13:18:27.266Z,20.74
2023-04-08T13:20:56.476Z,20.45
2023-04-08T13:23:24.954Z,20.16
2023-04-08T13:25:53.125Z,19.82
2023-04-08T13:28:23.885Z,19.37
2023-04-08T13:30:52.138Z,18.95
2023-04-08T13:33:22.416Z,18.57
2023-04-08T13:35:50.745Z,18.25
2023-04-08T13:38:18.925Z,17.95
2023-04-08T13:40:49.147Z,17.63
2023-04-08T13:43:17.815Z,17.39
2023-04-08T13:45:46.502Z,17.22
2023-04-08T13:48:16.728Z,17.10
2023-04-08T13:50:45.123Z,17.01
2023-04-08T13:53:13.866Z,16.95
2023-04-08T13:55:42.424Z,16.87
2023-04-08T13:58:21.167Z,16.76
2023-04-08T14:00:57.358Z,16.64
2023-04-08T14:03:26.692Z,16.57
2023-04-08T14:05:55.084Z,16.52
2023-04-08T14:08:25.994Z,16.51
2023-04-08T14:11:00.360Z,16.53
2023-04-08T14:13:29.207Z,16.57
2023-04-08T14:16:02.674Z,16.58
2023-04-08T14:18:31.395Z,16.62
2023-04-08T14:20:59.709Z,16.66
2023-04-08T14:23:27.951Z,16.74
2023-04-08T14:25:56.127Z,16.83
2023-04-08T14:28:29.107Z,16.93
2023-04-08T14:30:58.253Z,17.02
2023-04-08T14:33:27.598Z,17.12
2023-04-08T14:35:56.182Z,17.19
2023-04-08T14:38:24.951Z,17.26
2023-04-08T14:40:54.378Z,17.33
2023-04-08T14:43:22.556Z,17.38
2023-04-08T14:45:51.656Z,17.40
2023-04-08T14:48:20.569Z,17.42
2023-04-08T14:50:48.927Z,17.41
2023-04-08T14:53:19.850Z,17.41
2023-04-08T14:55:48.369Z,17.39
2023-04-08T14:58:18.010Z,17.36
2023-04-08T15:00:47.945Z,17.33
2023-04-08T15:03:18.943Z,17.26
2023-04-08T15:05:58.883Z,17.20
2023-04-08T15:08:27.251Z,17.13
2023-04-08T15:10:55.817Z,17.04
2023-04-08T15:13:28.588Z,16.94
2023-04-08T15:15:56.970Z,16.83
2023-04-08T15:18:25.674Z,16.74
2023-04-08T15:20:58.234Z,16.66
2023-04-08T15:23:27.460Z,16.54
2023-04-08T15:25:59.593Z,16.43
2023-04-08T15:28:28.238Z,16.35
2023-04-08T15:30:56.592Z,16.28
2023-04-08T15:33:26.240Z,16.20
2023-04-08T15:35:54.626Z,16.14
2023-04-08T15:38:23.149Z,16.08
2023-04-08T15:40:52.788Z,16.02
2023-04-08T15:43:21.595Z,15.95
2023-04-08T15:45:50.841Z,15.88
2023-04-08T15:48:20.652Z,15.82
2023-04-08T15:50:50.363Z,15.77
2023-04-08T15:53:18.800Z,15.73
2023-04-08T15:55:47.275Z,15.68
2023-04-08T15:58:16.429Z,15.62
2023-04-08T16:00:44.639Z,15.57
2023-04-08T16:03:33.300Z,15.54
2023-04-08T16:06:01.932Z,15.51
2023-04-08T16:08:32.237Z,15.46
2023-04-08T16:11:02.604Z,15.43
2023-04-08T16:13:31.637Z,15.39
2023-04-08T16:16:03.658Z,15.34
2023-04-08T16:18:32.354Z,15.30
2023-04-08T16:21:00.675Z,15.26
2023-04-08T16:23:30.018Z,15.25
2023-04-08T16:26:01.757Z,15.23
2023-04-08T16:28:31.106Z,15.19
2023-04-08T16:30:59.475Z,15.15
2023-04-08T16:33:30.708Z,15.12
2023-04-08T16:35:59.847Z,15.10
2023-04-08T16:38:29.669Z,15.08
2023-04-08T16:40:59.138Z,15.06
2023-04-08T16:43:28.022Z,15.04
2023-04-08T16:45:56.213Z,15.01
2023-04-08T16:48:24.618Z,14.98
2023-04-08T16:50:52.973Z,14.95
2023-04-08T16:53:21.518Z,14.91
2023-04-08T16:55:50.368Z,14.86
2023-04-08T16:58:18.728Z,14.81
2023-04-08T17:00:47.346Z,14.76
2023-04-08T17:03:18.245Z,14.72
2023-04-08T17:05:46.959Z,14.66
2023-04-08T17:08:15.833Z,14.61
2023-04-08T17:10:48.711Z,14.58
2023-04-08T17:13:17.229Z,14.55
2023-04-08T17:15:46.861Z,14.54
2023-04-08T17:18:15.510Z,14.54
2023-04-08T17:20:44.752Z,14.52
2023-04-08T17:23:23.573Z,14.51
2023-04-08T17:25:53.591Z,14.47
2023-04-08T17:28:22.234Z,14.47
2023-04-08T17:30:53.633Z,14.51
2023-04-08T17:33:22.460Z,14.53
2023-04-08T17:35:52.533Z,14.46
2023-04-08T17:38:22.632Z,14.37
2023-04-08T17:40:52.026Z,14.31
2023-04-08T17:43:23.582Z,14.29
2023-04-08T17:45:51.950Z,14.29
2023-04-08T17:48:20.340Z,14.28
2023-04-08T17:50:49.582Z,14.26
2023-04-08T17:53:18.037Z,14.26
2023-04-08T17:55:55.128Z,14.25
2023-04-08T17:58:23.988Z,14.25
2023-04-08T18:00:52.626Z,14.26
2023-04-08T18:03:23.349Z,14.26
2023-04-08T18:05:51.681Z,14.25
2023-04-08T18:08:20.419Z,14.22
2023-04-08T18:10:50.108Z,14.18
2023-04-08T18:13:18.599Z,14.14
2023-04-08T18:15:46.904Z,14.11
2023-04-08T18:18:19.664Z,14.08
2023-04-08T18:20:48.216Z,14.04
2023-04-08T18:23:23.075Z,14.00
2023-04-08T18:25:51.967Z,13.97
2023-04-08T18:28:22.764Z,13.93
2023-04-08T18:30:53.083Z,13.89
2023-04-08T18:33:21.915Z,13.83
2023-04-08T18:35:50.145Z,13.77
2023-04-08T18:38:20.423Z,13.69
2023-04-08T18:40:48.733Z,13.62
2023-04-08T18:43:16.924Z,13.55
2023-04-08T18:45:45.830Z,13.50
2023-04-08T18:48:16.153Z,13.44
2023-04-08T18:50:45.997Z,13.38
2023-04-08T18:53:14.751Z,13.34
2023-04-08T18:55:44.956Z,13.31
2023-04-08T18:58:14.318Z,13.27
2023-04-08T19:00:43.867Z,13.26
2023-04-08T19:03:13.552Z,13.23
2023-04-08T19:05:42.406Z,13.19
2023-04-08T19:08:10.989Z,13.16
2023-04-08T19:10:39.178Z,13.12
2023-04-08T19:13:07.403Z,13.08
2023-04-08T19:15:35.714Z,13.07
2023-04-08T19:18:05.815Z,13.06
2023-04-08T19:20:34.748Z,13.05
2023-04-08T19:23:03.518Z,13.03
2023-04-08T19:25:33.566Z,13.04
2023-04-08T19:28:02.225Z,13.05
2023-04-08T19:30:39.845Z,13.03
2023-04-08T19:33:09.017Z,12.99
2023-04-08T19:35:37.374Z,12.98
2023-04-08T19:38:05.886Z,12.97
2023-04-08T19:40:34.627Z,12.94
2023-04-08T19:43:03.867Z,12.91
2023-04-08T19:45:34.284Z,12.91
2023-04-08T19:48:03.518Z,12.93
2023-04-08T19:50:32.699Z,12.96
2023-04-08T19:53:01.016Z,13.00
2023-04-08T19:55:30.122Z,13.03
2023-04-08T19:57:58.597Z,13.05
2023-04-08T20:00:28.420Z,13.07
2023-04-08T20:02:57.912Z,13.04
2023-04-08T20:05:26.590Z,12.95
2023-04-08T20:07:56.876Z,12.86
2023-04-08T20:10:25.457Z,12.74
2023-04-08T20:12:54.414Z,12.62
2023-04-08T20:15:25.407Z,12.55
2023-04-08T20:17:54.030Z,12.49
2023-04-08T20:20:27.205Z,12.43
2023-04-08T20:22:56.841Z,12.37
2023-04-08T20:25:26.044Z,12.31
2023-04-08T20:27:54.984Z,12.25
2023-04-08T20:30:24.132Z,12.18
2023-04-08T20:32:52.441Z,12.14
2023-04-08T20:35:22.164Z,12.11
2023-04-08T20:37:51.215Z,12.05
2023-04-08T20:40:22.111Z,12.02
2023-04-08T20:42:50.330Z,11.98
2023-04-08T20:45:18.438Z,11.92
2023-04-08T20:47:50.906Z,11.81
2023-04-08T20:50:19.817Z,11.72
2023-04-08T20:52:50.552Z,11.69
2023-04-08T20:55:19.236Z,11.64
2023-04-08T20:57:48.088Z,11.59
2023-04-08T21:00:17.778Z,11.55
2023-04-08T21:02:48.077Z,11.46
2023-04-08T21:05:16.697Z,11.36
2023-04-08T21:07:47.261Z,11.26
2023-04-08T21:10:17.565Z,11.23
2023-04-08T21:12:46.205Z,11.22
2023-04-08T21:15:14.384Z,11.18
2023-04-08T21:17:44.026Z,11.14
2023-04-08T21:20:12.746Z,11.10
2023-04-08T21:22:41.536Z,11.06
2023-04-08T21:25:09.999Z,11.04
2023-04-08T21:27:41.383Z,11.02
2023-04-08T21:30:09.884Z,11.02
2023-04-08T21:32:38.928Z,11.05
2023-04-08T21:35:07.379Z,11.06
2023-04-08T21:37:35.663Z,11.04
2023-04-08T21:40:06.619Z,10.99
2023-04-08T21:42:35.177Z,10.98
2023-04-08T21:45:06.523Z,10.96
2023-04-08T21:47:35.628Z,10.91
2023-04-08T21:50:10.040Z,10.83
2023-04-08T21:52:40.975Z,10.78
2023-04-08T21:55:10.526Z,10.78
2023-04-08T21:57:41.567Z,10.81
2023-04-08T22:00:13.455Z,10.79
2023-04-08T22:02:52.692Z,10.79
2023-04-08T22:05:21.645Z,10.77
2023-04-08T22:07:57.569Z,10.75
2023-04-08T22:10:29.135Z,10.72
2023-04-08T22:12:57.465Z,10.71
2023-04-08T22:15:28.992Z,10.72
2023-04-08T22:17:58.956Z,10.69
2023-04-08T22:20:27.630Z,10.67
2023-04-08T22:22:56.028Z,10.63
2023-04-08T22:25:25.576Z,10.59
2023-04-08T22:27:53.727Z,10.59
2023-04-08T22:30:22.301Z,10.61
2023-04-08T22:32:52.170Z,10.64
2023-04-08T22:35:21.486Z,10.64
2023-04-08T22:37:54.306Z,10.63
2023-04-08T22:40:22.893Z,10.62
2023-04-08T22:42:51.112Z,10.64
2023-04-08T22:45:19.755Z,10.66
2023-04-08T22:47:48.063Z,10.64
2023-04-08T22:50:16.505Z,10.59
2023-04-08T22:52:46.124Z,10.55
2023-04-08T22:55:14.237Z,10.51
2023-04-08T22:57:44.799Z,10.50
2023-04-08T23:00:13.920Z,10.49
2023-04-08T23:02:42.646Z,10.45
2023-04-08T23:05:11.198Z,10.42
2023-04-08T23:07:39.436Z,10.39
2023-04-08T23:10:08.573Z,10.35
2023-04-08T23:12:36.796Z,10.34
2023-04-08T23:15:05.934Z,10.34
2023-04-08T23:17:34.224Z,10.35
2023-04-08T23:20:02.436Z,10.36
2023-04-08T23:22:30.944Z,10.35
2023-04-08T23:24:59.309Z,10.32
2023-04-08T23:27:27.924Z,10.28
2023-04-08T23:29:56.568Z,10.24
2023-04-08T23:32:24.789Z,10.23
2023-04-08T23:34:52.973Z,10.22
2023-04-08T23:37:24.932Z,10.19
2023-04-08T23:39:53.677Z,10.17
2023-04-08T23:42:27.395Z,10.14
2023-04-08T23:44:56.027Z,10.09
2023-04-08T23:47:24.868Z,10.00
2023-04-08T23:49:53.158Z,9.89
2023-04-08T23:52:21.456Z,9.77
2023-04-08T23:54:50.625Z,9.70
2023-04-08T23:57:20.570Z,9.68
2023-04-08T23:59:48.781Z,9.67
